Gordonsville, Virginia
Current Conditions -  °F | °C
As of 7:15 PM on Sunday 23 Nov 2014 (Local Time) from KGVE Reporting Station
Overcast Overcast  
Wind Chill:   Ceiling: 1800
Heat Index:   Visibility: 10mi
Dew Point:   Wind: 9mph
Humidity: 93%   Direction: 270°W
Pressure: 30"   Gusts: NA
Location:  38.14°N, 78.19°W
Report Text: KGVE 240015Z AUTO 27008KT 10SM SCT012 OVC018 10/09 A3000 RMK AO1 T00950085
Loading
Personal Weather Stations






























Interactive Weather Map New forecast layout! Learn more

10-Day Weather Forecast

Advertisements
Track Severe Weather on mobile